Time;durP1;ratioP1;P1;durP2;ratioP2;P2;SDS_P1;SDS_P2;PMS_P1;PMS_P2;Temp;Humidity;BMP_temperature;BMP_pressure;BME280_temperature;BME280_humidity;BME280_pressure;Samples;Min_cycle;Max_cycle;Signal;HPM_P1;HPM_P2
2022/06/02 00:02:40;;;;;;;9.45;4.88;;;;;;;19.20;95.20;94876.41;5062265;28;20209;-78
2022/06/02 00:05:31;;;;;;;8.45;4.80;;;;;;;19.18;94.64;94870.59;5066317;28;20213;-78
2022/06/02 00:08:17;;;;;;;11.23;4.88;;;;;;;19.16;93.64;94859.56;5061527;28;20236;-78
2022/06/02 00:11:03;;;;;;;10.10;4.78;;;;;;;19.19;93.28;94877.47;5065954;28;20364;-78
2022/06/02 00:13:42;;;;;;;8.43;4.82;;;;;;;19.02;93.97;94869.81;5066569;28;20842;-78
2022/06/02 00:16:18;;;;;;;9.30;4.80;;;;;;;19.03;95.12;94871.41;5055916;28;20224;-78
2022/06/02 00:18:55;;;;;;;8.15;4.88;;;;;;;18.98;97.12;94868.78;5068539;28;20327;-78
2022/06/02 00:21:34;;;;;;;10.38;5.43;;;;;;;19.15;98.90;94868.50;5066991;28;20211;-77
2022/06/02 00:24:14;;;;;;;8.38;5.25;;;;;;;19.21;100.00;94880.63;5066940;28;20208;-77
2022/06/02 00:26:52;;;;;;;13.95;5.72;;;;;;;19.21;99.71;94880.63;5065996;28;20201;-77
2022/06/02 00:29:32;;;;;;;11.23;4.93;;;;;;;19.21;99.95;94875.34;5065847;28;20281;-77
2022/06/02 00:32:11;;;;;;;11.43;4.75;;;;;;;19.23;99.38;94879.31;5063388;28;20197;-77
2022/06/02 00:34:47;;;;;;;15.73;5.70;;;;;;;19.24;98.18;94877.47;5057869;28;20262;-77
2022/06/02 00:37:31;;;;;;;11.75;5.03;;;;;;;19.17;97.15;94872.44;5064845;28;20751;-78
2022/06/02 00:40:05;;;;;;;12.38;5.13;;;;;;;19.25;98.01;94871.13;5060577;28;20247;-77
2022/06/02 00:42:58;;;;;;;10.07;5.35;;;;;;;19.20;99.34;94874.56;5066197;28;20580;-77
2022/06/02 00:45:28;;;;;;;7.03;4.70;;;;;;;19.12;97.11;94874.31;5066192;28;20280;-77
2022/06/02 00:48:15;;;;;;;11.55;4.97;;;;;;;19.12;95.69;94869.03;5066722;28;20575;-81
2022/06/02 00:50:57;;;;;;;10.63;5.72;;;;;;;19.12;95.52;94882.22;5062004;28;20286;-81
2022/06/02 00:57:30;;;;;;;7.68;5.07;;;;;;;19.11;95.65;94873.50;5065939;28;20215;-82
2022/06/02 00:59:43;;;;;;;17.52;5.20;;;;;;;19.13;93.45;94871.38;5066283;28;20261;-82
2022/06/02 01:02:16;;;;;;;19.30;6.05;;;;;;;19.03;94.92;94870.63;5054057;28;20220;-82
2022/06/02 01:04:50;;;;;;;8.80;6.03;;;;;;;19.00;97.40;94861.41;5066607;28;20688;-82
2022/06/02 01:07:37;;;;;;;12.63;6.55;;;;;;;19.04;98.95;94880.91;5065240;28;20205;-82
2022/06/02 01:10:36;;;;;;;16.55;7.03;;;;;;;18.99;99.99;94880.13;5066043;28;20201;-82
2022/06/02 01:13:33;;;;;;;14.10;7.00;;;;;;;18.97;100.00;94875.09;5055611;28;20684;-84
2022/06/02 01:16:14;;;;;;;13.98;7.10;;;;;;;18.94;100.00;94873.00;5059396;28;20309;-84
2022/06/02 01:18:57;;;;;;;16.10;7.38;;;;;;;18.95;100.00;94871.94;5063197;28;20696;-83
2022/06/02 01:22:05;;;;;;;9.10;7.00;;;;;;;18.98;100.00;94873.25;5058792;28;20213;-83
2022/06/02 01:25:03;;;;;;;20.58;7.68;;;;;;;18.90;100.00;94869.31;5064562;28;20217;-84
2022/06/02 01:28:17;;;;;;;13.15;7.20;;;;;;;18.91;100.00;94872.72;5061859;28;20213;-84
2022/06/02 01:31:01;;;;;;;17.52;7.78;;;;;;;18.89;100.00;94874.84;5063860;28;20208;-84
2022/06/02 01:33:45;;;;;;;19.20;7.63;;;;;;;18.81;100.00;94863.00;5066209;28;20197;-87
2022/06/02 01:36:26;;;;;;;15.20;7.05;;;;;;;18.84;100.00;94875.66;5070659;28;20189;-87
2022/06/02 01:39:24;;;;;;;16.98;6.75;;;;;;;18.76;100.00;94875.38;5068122;28;20279;-87
2022/06/02 01:42:07;;;;;;;18.90;7.18;;;;;;;18.76;100.00;94875.38;5068285;28;20238;-87
2022/06/02 01:44:52;;;;;;;15.80;7.05;;;;;;;18.76;100.00;94872.75;5071514;28;20270;-85
2022/06/02 01:47:36;;;;;;;12.77;7.18;;;;;;;18.72;100.00;94866.41;5069825;28;20193;-85
2022/06/02 01:50:25;;;;;;;12.45;7.35;;;;;;;18.69;100.00;94870.38;5070038;28;20205;-83
2022/06/02 01:53:07;;;;;;;14.88;7.30;;;;;;;18.63;100.00;94871.41;5069018;28;20209;-82
2022/06/02 01:56:04;;;;;;;15.65;6.55;;;;;;;18.57;100.00;94873.25;5065614;28;20209;-84
2022/06/02 01:58:52;;;;;;;13.15;6.55;;;;;;;18.55;100.00;94871.94;5065127;28;20918;-79
2022/06/02 02:01:30;;;;;;;14.27;6.78;;;;;;;18.47;100.00;94861.91;5056394;28;20214;-79
2022/06/02 02:04:20;;;;;;;8.57;6.43;;;;;;;18.46;100.00;94860.31;5058844;28;20206;-82
2022/06/02 02:07:00;;;;;;;11.73;6.40;;;;;;;18.38;100.00;94864.25;5070041;28;20205;-82
2022/06/02 02:09:44;;;;;;;16.40;7.20;;;;;;;18.36;100.00;94866.34;5065760;28;20203;-83
2022/06/02 02:12:26;;;;;;;16.27;6.75;;;;;;;18.33;100.00;94860.78;5068247;28;20220;-81
2022/06/02 02:15:15;;;;;;;12.63;6.63;;;;;;;18.27;100.00;94869.75;5072940;28;20546;-81
2022/06/02 02:17:58;;;;;;;15.65;7.15;;;;;;;18.21;100.00;94862.91;5072645;28;20405;-83
2022/06/02 02:20:43;;;;;;;14.43;6.60;;;;;;;18.24;100.00;94863.16;5063559;28;20274;-86
2022/06/02 02:23:22;;;;;;;10.20;6.50;;;;;;;18.20;100.00;94866.56;5071415;28;20592;-86
2022/06/02 02:26:02;;;;;;;9.77;6.63;;;;;;;18.10;100.00;94843.66;5068690;28;20217;-87
2022/06/02 02:28:46;;;;;;;16.48;7.32;;;;;;;18.22;100.00;94864.47;5063532;28;20197;-88
2022/06/02 02:31:30;;;;;;;11.57;6.60;;;;;;;18.19;100.00;94865.78;5060867;28;20594;-89
2022/06/02 02:34:11;;;;;;;9.93;7.00;;;;;;;18.18;100.00;94866.06;5069842;28;20205;-88
2022/06/02 02:36:57;;;;;;;15.20;6.90;;;;;;;18.10;100.00;94862.88;5066488;28;20212;-86
2022/06/02 02:39:36;;;;;;;19.00;8.20;;;;;;;18.12;100.00;94870.50;5064850;28;20703;-86
2022/06/02 02:42:17;;;;;;;18.37;8.20;;;;;;;18.09;100.00;94865.75;5065379;28;20227;-86
2022/06/02 02:45:03;;;;;;;16.47;8.97;;;;;;;18.00;100.00;94854.97;5063007;28;20320;-86
2022/06/02 02:47:42;;;;;;;21.87;10.03;;;;;;;18.03;100.00;94867.59;5064051;28;20198;-77
2022/06/02 02:50:19;;;;;;;20.38;10.23;;;;;;;18.03;100.00;94853.66;5068449;28;20197;-78
2022/06/02 02:53:01;;;;;;;26.55;11.65;;;;;;;18.10;100.00;94870.75;5068030;28;20644;-77
2022/06/02 02:55:36;;;;;;;24.80;10.97;;;;;;;18.02;100.00;94870.47;5061812;28;20229;-77
2022/06/02 02:58:12;;;;;;;16.92;10.75;;;;;;;18.00;100.00;94869.94;5067951;28;20215;-76
2022/06/02 03:00:50;;;;;;;22.50;10.10;;;;;;;17.93;100.00;94864.13;5068320;28;20221;-77
2022/06/02 03:03:30;;;;;;;19.60;11.67;;;;;;;17.98;100.00;94872.03;5066023;28;20208;-77
2022/06/02 03:06:16;;;;;;;30.07;20.03;;;;;;;17.93;100.00;94880.69;5068665;28;20291;-77
2022/06/02 03:08:57;;;;;;;29.07;18.33;;;;;;;17.93;100.00;94879.91;5070457;28;20655;-77
2022/06/02 03:11:56;;;;;;;18.73;9.30;;;;;;;17.94;100.00;94878.84;5068896;28;20205;-77
2022/06/02 03:14:43;;;;;;;10.33;6.80;;;;;;;17.93;100.00;94882.53;5069420;28;20205;-77
2022/06/02 03:17:24;;;;;;;16.70;7.35;;;;;;;17.94;100.00;94879.66;5069216;28;20209;-78
2022/06/02 03:20:01;;;;;;;11.43;6.88;;;;;;;17.98;100.00;94882.53;5067865;28;20225;-77
2022/06/02 03:22:45;;;;;;;14.48;9.15;;;;;;;18.00;100.00;94873.38;5067329;28;20204;-77
2022/06/02 03:25:32;;;;;;;25.50;12.75;;;;;;;18.06;100.00;94882.06;5066762;28;20201;-76
2022/06/02 03:28:21;;;;;;;18.27;9.57;;;;;;;18.02;100.00;94879.16;5063897;28;20681;-76
2022/06/02 03:31:02;;;;;;;14.55;8.48;;;;;;;18.01;100.00;94880.19;5066493;28;20302;-76
2022/06/02 03:33:57;;;;;;;11.40;7.03;;;;;;;18.05;100.00;94888.38;5067397;28;20221;-78
2022/06/02 03:36:45;;;;;;;12.93;8.70;;;;;;;18.03;100.00;94880.75;5064300;28;20201;-73
2022/06/02 03:39:28;;;;;;;22.70;12.17;;;;;;;18.06;100.00;94882.06;5066379;28;20209;-73
2022/06/02 03:42:20;;;;;;;26.87;14.23;;;;;;;18.01;100.00;94880.19;5066276;28;20854;-72
2022/06/02 03:45:14;;;;;;;23.20;13.83;;;;;;;18.01;100.00;94884.66;5065490;28;20248;-74
2022/06/02 03:48:21;;;;;;;26.90;14.63;;;;;;;18.00;100.00;94876.00;5066152;28;20306;-72
2022/06/02 03:51:15;;;;;;;29.33;16.33;;;;;;;18.06;100.00;94871.53;5065292;28;20276;-73
2022/06/02 03:54:21;;;;;;;23.07;14.43;;;;;;;17.95;100.00;94869.94;5066748;28;20251;-73
2022/06/02 03:57:26;;;;;;;28.43;17.53;;;;;;;17.87;100.00;94862.50;5068477;28;20283;-73
2022/06/02 04:00:24;;;;;;;26.73;15.90;;;;;;;17.91;100.00;94864.38;5013194;28;20221;-74
2022/06/02 04:02:57;;;;;;;25.50;13.80;;;;;;;17.81;100.00;94859.09;5059418;28;20559;-73
2022/06/02 04:05:57;;;;;;;20.23;11.90;;;;;;;17.47;100.00;94863.09;5065898;28;20202;-74
2022/06/02 04:08:42;;;;;;;25.13;13.33;;;;;;;17.34;100.00;94861.75;5067499;28;20201;-74
2022/06/02 04:11:24;;;;;;;21.17;12.60;;;;;;;17.42;100.00;94865.72;5067979;28;20200;-73
2022/06/02 04:14:05;;;;;;;19.50;11.43;;;;;;;17.54;100.00;94864.50;5068450;28;20729;-73
2022/06/02 04:16:51;;;;;;;19.33;10.83;;;;;;;17.65;100.00;94870.59;5066827;28;20213;-74
2022/06/02 04:22:55;;;;;;;14.07;9.23;;;;;;;17.82;100.00;94873.03;5061993;28;20188;-76
2022/06/02 04:25:47;;;;;;;15.93;8.47;;;;;;;17.92;100.00;94870.44;5064979;28;20220;-75
2022/06/02 04:28:23;;;;;;;15.07;8.10;;;;;;;18.00;100.00;94862.84;5067978;28;20205;-74
2022/06/02 04:31:02;;;;;;;14.23;8.30;;;;;;;18.10;100.00;94873.38;5067927;28;20197;-75
2022/06/02 04:33:38;;;;;;;15.13;8.00;;;;;;;18.19;100.00;94872.88;5066347;28;20232;-76
2022/06/02 04:36:21;;;;;;;14.00;8.00;;;;;;;18.24;100.00;94880.81;5065397;28;20204;-75
2022/06/02 04:39:01;;;;;;;16.10;8.80;;;;;;;18.30;100.00;94877.09;5065004;28;20659;-79
2022/06/02 04:41:40;;;;;;;13.23;8.63;;;;;;;18.37;100.00;94880.28;5063088;28;20683;-76
2022/06/02 04:44:26;;;;;;;20.23;8.60;;;;;;;18.39;100.00;94886.88;5064889;28;20286;-75
2022/06/02 04:47:07;;;;;;;12.73;8.65;;;;;;;18.41;100.00;94897.94;5065486;28;20200;-74
2022/06/02 04:49:49;;;;;;;18.70;8.82;;;;;;;18.52;100.00;94898.78;5058712;28;20201;-74
2022/06/02 04:52:28;;;;;;;17.48;8.88;;;;;;;18.59;100.00;94902.72;5064942;28;20197;-75
2022/06/02 04:55:07;;;;;;;17.27;9.68;;;;;;;18.54;100.00;94897.47;5065646;28;21099;-75
2022/06/02 04:57:46;;;;;;;17.17;9.13;;;;;;;18.55;100.00;94898.25;5071131;28;20258;-75
2022/06/02 05:00:30;;;;;;;15.60;9.07;;;;;;;18.55;100.00;94901.69;5072682;28;20229;-75
2022/06/02 05:03:07;;;;;;;24.17;10.27;;;;;;;18.44;100.00;94900.03;5066783;28;20196;-75
2022/06/02 05:05:45;;;;;;;17.17;9.10;;;;;;;18.38;100.00;94895.84;5072417;28;20212;-75
2022/06/02 05:08:34;;;;;;;19.80;9.57;;;;;;;18.32;100.00;94903.97;5062686;28;20232;-74
2022/06/02 05:11:19;;;;;;;18.67;9.33;;;;;;;18.38;100.00;94895.03;5048501;28;20917;-76
2022/06/02 05:14:01;;;;;;;15.05;8.52;;;;;;;18.49;100.00;94886.94;5071007;28;20631;-76
2022/06/02 05:16:41;;;;;;;15.25;8.55;;;;;;;18.59;100.00;94883.50;5071661;28;20220;-75
2022/06/02 05:19:48;;;;;;;27.13;10.90;;;;;;;18.67;100.00;94886.41;5074074;28;20200;-76
2022/06/02 05:23:03;;;;;;;18.88;10.75;;;;;;;18.71;100.00;94881.41;5068722;28;20842;-75
2022/06/02 05:25:58;;;;;;;21.52;10.68;;;;;;;18.75;100.00;94887.75;5068433;28;20559;-73
2022/06/02 05:28:52;;;;;;;20.15;9.80;;;;;;;18.82;100.00;94895.38;5066436;28;20889;-73
2022/06/02 05:31:54;;;;;;;22.67;9.77;;;;;;;18.86;100.00;94886.69;5060939;28;20196;-75
2022/06/02 05:35:00;;;;;;;23.38;8.95;;;;;;;18.96;100.00;94889.31;5068886;28;20211;-74
2022/06/02 05:37:49;;;;;;;11.80;7.57;;;;;;;19.07;100.00;94884.84;5070783;28;20241;-74
2022/06/02 05:40:32;;;;;;;10.63;7.80;;;;;;;19.13;100.00;94894.34;5072003;28;20221;-74
2022/06/02 05:43:19;;;;;;;14.15;7.95;;;;;;;19.26;100.00;94896.44;5073251;28;20201;-74
2022/06/02 05:46:13;;;;;;;12.75;7.50;;;;;;;19.25;100.00;94898.25;5068146;28;20263;-74
2022/06/02 05:49:16;;;;;;;14.63;9.30;;;;;;;19.25;100.00;94900.91;5072611;28;20205;-74
2022/06/02 05:52:02;;;;;;;15.18;8.30;;;;;;;19.28;100.00;94899.56;5073588;28;20196;-74
2022/06/02 05:54:55;;;;;;;22.67;9.30;;;;;;;19.39;100.00;94905.69;5073239;28;20203;-75
2022/06/02 05:57:43;;;;;;;14.98;8.57;;;;;;;19.46;100.00;94900.91;5073267;28;20217;-78
2022/06/02 06:00:25;;;;;;;19.00;9.18;;;;;;;19.54;100.00;94892.44;5073627;28;20695;-77
2022/06/02 06:03:29;;;;;;;22.02;9.60;;;;;;;19.67;100.00;94891.91;5068171;28;20288;-79
2022/06/02 06:06:13;;;;;;;21.58;9.00;;;;;;;19.74;100.00;94903.72;5073802;28;20212;-79
2022/06/02 06:08:55;;;;;;;18.27;9.20;;;;;;;19.78;100.00;94898.72;5069450;28;20270;-77
2022/06/02 06:11:44;;;;;;;19.77;9.88;;;;;;;19.85;100.00;94895.81;5070370;28;20288;-78
2022/06/02 06:14:33;;;;;;;19.35;9.30;;;;;;;19.94;100.00;94894.19;5070223;28;20197;-79
2022/06/02 06:17:14;;;;;;;24.75;9.50;;;;;;;20.00;100.00;94895.75;5065758;28;20237;-78
2022/06/02 06:20:12;;;;;;;18.73;10.10;;;;;;;20.21;99.26;94900.66;5068442;28;20580;-78
2022/06/02 06:23:09;;;;;;;22.90;10.85;;;;;;;20.28;98.87;94898.56;5064132;28;20209;-77
2022/06/02 06:26:05;;;;;;;29.20;12.35;;;;;;;20.32;98.75;94907.50;5067677;28;20205;-78
2022/06/02 06:28:46;;;;;;;48.40;13.50;;;;;;;20.41;98.12;94907.72;5064878;28;20201;-77
2022/06/02 06:31:29;;;;;;;25.80;12.65;;;;;;;20.48;96.44;94905.56;5070079;28;20232;-78
2022/06/02 06:34:16;;;;;;;117.90;17.88;;;;;;;20.58;95.61;94902.06;5062691;28;20744;-78
2022/06/02 06:37:18;;;;;;;25.73;11.65;;;;;;;20.71;93.95;94893.53;5065268;28;20201;-77
2022/06/02 06:40:04;;;;;;;86.97;24.20;;;;;;;20.75;92.85;94899.84;5062688;28;20216;-77
2022/06/02 06:43:01;;;;;;;27.50;12.43;;;;;;;20.85;91.33;94897.91;5068975;28;20274;-79
2022/06/02 06:45:51;;;;;;;28.52;11.95;;;;;;;20.87;91.12;94903.72;5068382;28;20620;-79
2022/06/02 06:48:36;;;;;;;22.77;10.73;;;;;;;20.93;90.47;94899.97;5066326;28;20205;-79
2022/06/02 06:51:23;;;;;;;17.05;10.70;;;;;;;21.02;88.77;94900.16;5065708;28;20266;-77
2022/06/02 06:54:08;;;;;;;21.23;10.27;;;;;;;21.08;87.98;94895.66;5068367;28;20232;-77
2022/06/02 06:56:50;;;;;;;16.98;9.75;;;;;;;21.13;87.64;94900.91;5069010;28;20314;-79
2022/06/02 06:59:49;;;;;;;21.67;10.30;;;;;;;21.11;88.65;94890.63;5068989;28;20205;-79
2022/06/02 07:02:35;;;;;;;19.15;9.57;;;;;;;21.22;88.62;94884.16;5062530;28;20414;-80
2022/06/02 07:05:26;;;;;;;23.00;10.25;;;;;;;21.31;87.19;94894.94;5067262;28;20208;-78
2022/06/02 07:08:11;;;;;;;26.02;14.63;;;;;;;21.41;85.98;94898.25;5064915;28;20197;-78
2022/06/02 07:10:51;;;;;;;25.02;15.40;;;;;;;21.46;85.63;94900.88;5066678;28;20287;-78
2022/06/02 07:13:32;;;;;;;35.15;15.32;;;;;;;21.55;84.39;94902.91;5067437;28;20197;-79
2022/06/02 07:16:14;;;;;;;27.02;10.23;;;;;;;21.60;84.12;94897.56;5063774;28;20209;-79
2022/06/02 07:19:05;;;;;;;27.15;9.50;;;;;;;21.71;83.23;94902.47;5063347;28;20335;-78
2022/06/02 07:21:45;;;;;;;18.88;10.32;;;;;;;21.79;83.07;94904.47;5069522;28;20229;-79
2022/06/02 07:24:47;;;;;;;25.27;9.68;;;;;;;21.81;81.58;94904.22;5063245;28;20294;-79
2022/06/02 07:27:32;;;;;;;16.85;8.18;;;;;;;21.87;80.28;94890.69;5066976;28;20318;-80
2022/06/02 07:30:25;;;;;;;34.45;16.27;;;;;;;21.97;80.71;94900.34;5063542;28;21523;-82
2022/06/02 07:33:21;;;;;;;26.65;14.18;;;;;;;22.10;79.68;94901.53;5061508;28;20198;-79
2022/06/02 07:36:40;;;;;;;110.97;17.25;;;;;;;22.20;78.15;94907.47;5063697;28;20201;-79
2022/06/02 07:39:32;;;;;;;18.80;9.07;;;;;;;22.31;77.08;94905.50;5067122;28;20286;-84
2022/06/02 07:42:45;;;;;;;32.10;8.27;;;;;;;22.36;76.82;94893.00;5067713;28;20815;-79
2022/06/02 07:45:41;;;;;;;215.43;19.92;;;;;;;22.44;76.33;94894.19;5040578;28;20225;-77
2022/06/02 07:48:51;;;;;;;26.17;7.95;;;;;;;22.57;76.85;94893.47;5065264;28;20742;-77
2022/06/02 07:51:32;;;;;;;14.57;7.15;;;;;;;22.67;75.12;94893.38;5063968;28;20288;-76
2022/06/02 07:54:27;;;;;;;23.30;7.82;;;;;;;22.83;73.15;94902.66;5064399;28;20208;-79
2022/06/02 07:57:14;;;;;;;17.10;6.93;;;;;;;22.89;71.06;94900.72;5061031;28;20208;-79
2022/06/02 08:00:00;;;;;;;14.60;6.45;;;;;;;22.91;69.88;94903.91;5063526;28;20201;-79
2022/06/02 08:03:08;;;;;;;20.80;6.80;;;;;;;22.96;69.55;94895.84;5062530;28;20324;-79
2022/06/02 08:05:49;;;;;;;27.90;9.75;;;;;;;23.00;67.81;94892.31;5065148;28;20199;-79
2022/06/02 08:08:39;;;;;;;10.48;6.88;;;;;;;23.11;66.21;94895.63;5066643;28;20650;-79
2022/06/02 08:11:30;;;;;;;17.65;6.85;;;;;;;23.21;66.21;94899.94;5064689;28;20228;-79
2022/06/02 08:14:17;;;;;;;11.70;5.75;;;;;;;23.24;65.05;94894.88;5063163;28;20297;-78
2022/06/02 08:16:59;;;;;;;13.18;6.05;;;;;;;23.27;65.17;94888.19;5063943;28;20201;-78
2022/06/02 08:19:46;;;;;;;21.38;8.18;;;;;;;23.34;65.07;94902.66;5065634;28;20201;-80
2022/06/02 08:22:26;;;;;;;17.70;7.63;;;;;;;23.40;64.91;94893.56;5066558;28;20277;-79
2022/06/02 08:25:12;;;;;;;15.45;7.25;;;;;;;23.53;65.52;94897.31;5067202;28;20205;-79
2022/06/02 08:28:10;;;;;;;13.48;6.85;;;;;;;23.65;65.76;94897.63;5062287;28;20263;-80
2022/06/02 08:30:48;;;;;;;15.55;7.43;;;;;;;23.77;65.43;94891.84;5060840;28;20706;-81
2022/06/02 08:33:40;;;;;;;11.65;8.13;;;;;;;23.86;66.00;94898.84;5067870;28;20229;-79
2022/06/02 08:36:18;;;;;;;12.55;7.53;;;;;;;23.87;65.27;94884.47;5067136;28;20741;-79
2022/06/02 08:39:13;;;;;;;17.50;7.20;;;;;;;23.97;65.21;94892.25;5067706;28;20197;-78
2022/06/02 08:42:33;;;;;;;18.08;7.13;;;;;;;24.13;62.89;94890.09;5058879;28;20225;-79
2022/06/02 08:45:39;;;;;;;17.98;7.40;;;;;;;24.31;61.72;94899.81;5064070;28;20330;-79
2022/06/02 08:48:48;;;;;;;14.90;7.85;;;;;;;24.38;61.41;94889.56;5066380;28;20208;-78
2022/06/02 08:51:50;;;;;;;21.38;7.82;;;;;;;24.44;62.73;94899.03;5067389;28;20621;-79
2022/06/02 08:55:05;;;;;;;14.88;6.65;;;;;;;24.58;60.09;94896.31;5068639;28;20207;-79
2022/06/02 08:58:06;;;;;;;203.90;14.70;;;;;;;24.64;60.59;94895.13;4971401;28;20203;-79
2022/06/02 09:00:53;;;;;;;55.70;9.50;;;;;;;24.67;60.35;94887.34;5063149;28;20242;-75
2022/06/02 09:04:13;;;;;;;12.98;6.25;;;;;;;24.77;60.72;94892.41;5066479;28;20291;-80
2022/06/02 09:07:09;;;;;;;19.23;7.47;;;;;;;24.90;58.91;94893.50;5065948;28;20284;-79
2022/06/02 09:10:21;;;;;;;41.80;13.38;;;;;;;25.01;59.36;94896.69;5062243;28;20209;-78
2022/06/02 09:13:41;;;;;;;13.57;6.68;;;;;;;25.19;58.70;94893.88;5000745;28;20201;-79
2022/06/02 09:16:30;;;;;;;25.73;7.00;;;;;;;25.30;58.23;94894.41;5064662;28;20201;-79
2022/06/02 09:19:37;;;;;;;13.50;5.63;;;;;;;25.35;56.58;94889.72;5060511;28;20244;-79
2022/06/02 09:22:42;;;;;;;105.97;11.20;;;;;;;25.50;56.10;94893.91;5066365;28;20224;-79
2022/06/02 09:25:32;;;;;;;15.48;6.47;;;;;;;25.68;55.59;94892.91;5066863;28;20213;-80
2022/06/02 09:28:33;;;;;;;17.90;6.68;;;;;;;25.82;51.79;94896.28;5066829;28;20556;-81
2022/06/02 09:31:35;;;;;;;94.88;10.32;;;;;;;25.99;48.69;94892.88;5058281;28;20225;-78
2022/06/02 09:34:33;;;;;;;11.40;4.65;;;;;;;26.10;48.45;94883.50;5068494;28;20729;-77
2022/06/02 09:37:27;;;;;;;26.40;6.03;;;;;;;26.29;46.83;94888.63;5067446;28;20194;-76
2022/06/02 09:40:23;;;;;;;21.02;5.50;;;;;;;26.37;47.21;94888.63;5064269;28;20692;-77
2022/06/02 09:43:29;;;;;;;28.40;5.43;;;;;;;26.52;45.69;94878.59;5067831;28;20776;-77
2022/06/02 09:46:31;;;;;;;13.48;5.05;;;;;;;26.60;46.28;94877.81;5056551;28;20310;-77
2022/06/02 09:49:30;;;;;;;12.88;4.22;;;;;;;26.73;44.97;94877.66;5033517;28;20220;-77
2022/06/02 09:52:12;;;;;;;103.63;9.52;;;;;;;26.77;40.35;94885.84;5063681;28;20546;-77
2022/06/02 09:55:18;;;;;;;18.65;4.80;;;;;;;26.84;40.17;94880.84;5065481;28;20209;-77
2022/06/02 09:58:05;;;;;;;13.20;3.42;;;;;;;27.02;38.58;94883.19;5070771;28;20284;-77
2022/06/02 10:01:07;;;;;;;13.38;3.80;;;;;;;27.29;37.13;94883.94;5070372;28;20574;-77
2022/06/02 10:04:22;;;;;;;8.65;3.10;;;;;;;27.35;36.30;94872.78;5069898;28;20651;-77
2022/06/02 10:07:34;;;;;;;9.60;3.35;;;;;;;27.57;37.79;94869.13;5070531;28;20288;-77
2022/06/02 10:10:39;;;;;;;10.40;3.42;;;;;;;27.78;35.67;94877.22;5056362;28;20212;-77
2022/06/02 10:13:44;;;;;;;11.90;3.20;;;;;;;27.92;32.76;94881.25;5069098;28;20803;-78
2022/06/02 10:16:54;;;;;;;6.55;2.88;;;;;;;28.07;31.21;94875.41;5070075;28;20284;-78
2022/06/02 10:20:04;;;;;;;17.70;3.80;;;;;;;28.20;32.75;94878.94;5054367;28;20209;-77
2022/06/02 10:22:48;;;;;;;8.57;3.42;;;;;;;28.38;33.53;94874.28;5059642;28;20324;-76
2022/06/02 10:25:51;;;;;;;7.78;3.20;;;;;;;28.60;33.42;94877.44;5068709;28;20209;-77
2022/06/02 10:29:16;;;;;;;10.63;3.53;;;;;;;28.81;34.63;94866.75;5065602;28;20209;-77
2022/06/02 10:32:42;;;;;;;15.68;6.15;;;;;;;29.11;33.71;94870.13;5065253;28;20197;-77
2022/06/02 10:35:49;;;;;;;13.80;4.40;;;;;;;29.43;33.55;94869.38;5067327;28;20209;-76
2022/06/02 10:38:43;;;;;;;6.95;3.70;;;;;;;29.68;31.59;94864.84;5069878;28;20200;-77
2022/06/02 10:41:38;;;;;;;9.25;3.38;;;;;;;29.88;32.02;94866.69;5070143;28;20198;-76
2022/06/02 10:44:27;;;;;;;11.13;3.25;;;;;;;30.01;33.44;94865.56;5069263;28;20236;-76
2022/06/02 10:47:36;;;;;;;7.57;3.60;;;;;;;30.15;32.43;94852.59;5070422;28;20202;-76
2022/06/02 10:50:32;;;;;;;10.80;3.75;;;;;;;30.30;32.42;94843.84;5055843;28;20259;-77
2022/06/02 10:53:36;;;;;;;8.65;3.42;;;;;;;30.48;31.42;94846.34;5069648;28;20209;-77
2022/06/02 10:56:51;;;;;;;11.25;3.80;;;;;;;30.76;31.44;94839.91;5070754;28;20205;-77
2022/06/02 10:59:53;;;;;;;9.52;3.17;;;;;;;30.92;30.63;94843.41;5041386;28;20241;-77
2022/06/02 11:03:16;;;;;;;9.52;3.17;;;;;;;31.03;31.00;94840.25;5067438;28;20260;-77
2022/06/02 11:09:48;;;;;;;11.82;3.85;;;;;;;31.27;31.24;94843.63;4975209;27;4576570;-78
2022/06/02 11:12:54;;;;;;;11.90;3.38;;;;;;;31.15;32.24;94843.66;5124805;28;20283;-76
2022/06/02 11:16:19;;;;;;;10.57;3.47;;;;;;;31.29;32.62;94844.03;5125103;28;20195;-76
2022/06/02 11:19:11;;;;;;;6.18;3.15;;;;;;;31.48;33.10;94840.75;5043835;28;20289;-76
2022/06/02 11:22:23;;;;;;;8.85;3.20;;;;;;;31.80;32.56;94850.38;5122927;28;20199;-76
2022/06/02 11:25:25;;;;;;;7.93;3.70;;;;;;;32.16;32.21;94838.56;5119476;28;20314;-76
2022/06/02 11:28:34;;;;;;;12.95;3.20;;;;;;;32.48;32.26;94848.16;5122969;28;20219;-76
2022/06/02 11:31:42;;;;;;;14.35;3.72;;;;;;;32.66;32.60;94840.47;5121964;28;20286;-77
2022/06/02 11:34:49;;;;;;;17.27;3.90;;;;;;;32.85;32.53;94837.00;5120303;28;20203;-77
2022/06/02 11:37:43;;;;;;;15.20;3.28;;;;;;;32.73;30.76;94834.47;5123796;28;20230;-77
2022/06/02 11:40:41;;;;;;;9.90;3.30;;;;;;;32.91;32.07;94830.19;5119848;28;20555;-77
2022/06/02 11:43:24;;;;;;;13.25;3.00;;;;;;;32.95;32.17;94833.75;5120257;28;20196;-77
2022/06/02 11:46:32;;;;;;;12.38;3.45;;;;;;;33.22;32.11;94838.13;5124394;28;20231;-77
2022/06/02 11:49:39;;;;;;;9.07;3.30;;;;;;;33.23;31.82;94826.22;5124279;28;20238;-79
2022/06/02 11:52:32;;;;;;;10.48;3.10;;;;;;;33.03;31.54;94836.22;5120281;28;20518;-76
2022/06/02 11:55:42;;;;;;;5.75;2.80;;;;;;;32.98;29.86;94835.75;5123572;28;20287;-76
2022/06/02 11:58:49;;;;;;;16.55;3.65;;;;;;;33.23;31.09;94828.94;5112983;28;20664;-76
2022/06/02 12:01:57;;;;;;;15.98;3.10;;;;;;;33.38;30.58;94829.97;5125508;28;20677;-76
2022/06/02 12:05:03;;;;;;;12.90;5.60;;;;;;;33.51;31.63;94824.03;5120162;28;20199;-76
2022/06/02 12:08:09;;;;;;;9.05;5.50;;;;;;;33.49;31.11;94815.53;5121579;28;20288;-77
2022/06/02 12:11:19;;;;;;;29.50;4.47;;;;;;;33.55;30.97;94826.81;5103217;28;20621;-76
2022/06/02 12:14:10;;;;;;;27.83;3.85;;;;;;;33.66;31.19;94822.41;5121258;28;20207;-76
2022/06/02 12:17:17;;;;;;;11.23;5.25;;;;;;;33.64;30.80;94817.38;5124109;28;20200;-76
2022/06/02 12:20:17;;;;;;;22.65;9.23;;;;;;;33.87;31.00;94814.66;5113441;28;20232;-76
2022/06/02 12:23:22;;;;;;;10.05;3.90;;;;;;;33.75;32.17;94814.84;5110077;28;20269;-76
2022/06/02 12:26:08;;;;;;;10.63;6.97;;;;;;;33.13;32.43;94823.34;5109095;28;20261;-76
2022/06/02 12:29:06;;;;;;;9.93;4.95;;;;;;;32.59;32.62;94824.16;5110026;28;20320;-76
2022/06/02 12:32:17;;;;;;;9.07;3.70;;;;;;;32.07;32.98;94819.13;5103136;28;20201;-76
2022/06/02 12:35:20;;;;;;;13.13;5.00;;;;;;;31.49;34.21;94820.78;5105471;28;20202;-76
2022/06/02 12:38:16;;;;;;;27.20;6.63;;;;;;;31.06;34.93;94818.84;5108121;28;20646;-75
2022/06/02 12:41:09;;;;;;;16.73;6.15;;;;;;;30.92;35.02;94813.88;5109237;28;20367;-75
2022/06/02 12:44:28;;;;;;;17.35;5.95;;;;;;;30.79;34.76;94820.38;5110679;28;20393;-76
2022/06/02 12:47:23;;;;;;;17.63;5.05;;;;;;;30.60;35.79;94816.78;5073721;28;20682;-76
2022/06/02 12:50:27;;;;;;;21.45;11.30;;;;;;;30.50;36.04;94814.56;5108091;28;20674;-76
2022/06/02 12:53:27;;;;;;;107.35;11.07;;;;;;;30.38;37.08;94823.44;5102565;28;20211;-76
2022/06/02 12:56:34;;;;;;;28.58;4.97;;;;;;;30.15;36.65;94819.63;5070221;28;20210;-75
2022/06/02 12:59:36;;;;;;;9.35;3.80;;;;;;;29.91;36.89;94816.97;5109975;28;20252;-76
2022/06/02 13:02:16;;;;;;;8.52;4.13;;;;;;;29.91;38.13;94814.28;5099927;28;20284;-76
2022/06/02 13:05:34;;;;;;;9.65;3.63;;;;;;;29.83;38.46;94826.69;5106911;28;20655;-76
2022/06/02 13:08:56;;;;;;;8.48;3.78;;;;;;;29.81;38.08;94818.22;5085604;28;20234;-77
2022/06/02 13:12:06;;;;;;;13.27;4.25;;;;;;;29.54;38.16;94790.13;5108803;28;20203;-76
2022/06/02 13:15:12;;;;;;;26.25;5.10;;;;;;;29.75;38.83;94824.88;5108149;28;20208;-77
2022/06/02 13:18:13;;;;;;;35.03;5.95;;;;;;;29.69;39.80;94821.63;5108249;28;20204;-72
2022/06/02 13:21:13;;;;;;;10.05;4.30;;;;;;;29.61;41.46;94819.06;5110786;28;20211;-78
2022/06/02 13:24:16;;;;;;;12.27;4.00;;;;;;;29.50;43.74;94818.69;5108580;28;20204;-76
2022/06/02 13:27:19;;;;;;;10.00;3.85;;;;;;;29.35;45.21;94818.56;5099237;28;20295;-76
2022/06/02 13:30:27;;;;;;;13.68;4.18;;;;;;;29.38;45.45;94815.22;5102538;28;20215;-78